What's new
  • ยินดีต้อนรับทุกท่านเข้าสู่ไทยซีร้อยสามสิบครับ, หากท่านพบปัญหาการใช้งานเว็บไซต์ของเรา
    หรือต้องการเสนอแนะประการใดสามารถโพสแจ้งได้ที่ ฟอรั่ม: Contact us/help info ,ขอบคุณครับ.
    แจ้งข่าวสารการอับเดทฟอรั่ม Thaic-130


    Live support: SKYPIG / Lt.Col.Tirapong Kongsomrit, e-mail: kongsomrit@yahoo.com
    กรุณาปิด โปรแกรมบล๊อกโฆษณา เพราะเราอยู่ได้ด้วยโฆษณาที่ท่านเห็น
    Please close the adblock program. Because we can live with the ads you see

Aug 2012

skypig

Administrator
บิน สู้ ฟัด
เดือนนี้ย่างเข้าสู่ฤดูฝน อย่างเต็มตัว
เมื่อคืน 29 ก.ค. FD3323 กลับจากอุบลฯ
ใช้เวลา 1 ชั่วโมง 49 นาที บันทึกไว้เป็นประวัติศาสตร์
 

Attachments

skypig

Administrator
ตารางบินออกเมื่อปลายเดือนที่แล้ว
มีไฟล์ทบินไป มาเก๊า FD 3600 17 ส.ค.
แล้วบังเอิญมีพายุ KAI TAK ก่อตัวที่ฟิลิปปินส์ หลายวันก่อน
เดินทางอย่างช้าา... ช้าๆ
มาบริเวณ จีนตอนใต้ มาเก๊า ฮ่องกง
ราวกับว่า นัดกันไว้ เพื่อพบกัน ตามสถานที่ และเวลาดังกล่าว
ชื่อ KAI TAK ก็คือ ชื่อสนามบินเก่าของ ฮ่องกง
 

skypig

Administrator
ดูพยากรณ์อากาศ ล่วงหน้า แล้วเสียว...

วันนี้ 16ส.ค. ยังดีอยู่
VMMC 160030Z 01004KT 9999 FEW015 28/25 Q1002 NOSIG

TAF VMMC 152300Z 1600/1706 VRB03KT 8000 FEW012 SCT020


TEMPO 1600/1609 VRB15G25KT 2500 TSRA +SHRA FEW006 SCT010CB BKN035
BECMG 1609/1612 02020KT
TEMPO 1609/1618 04030G45KT 1500 +SHRA FEW006 SCT010CB BKN035
BECMG 1618/1621 09030KT

แต่ พะ พะ พรุ่งนี้ ซิ
TEMPO 1618/1706 13035G50KT 1500 +SHRA FEW006 SCT010CB BKN035

ช่วงเวลาที่ไปลงพอดี

สนามบินสำรอง ก็โหด คล้ายๆกัน
VHHH 160030Z 04004KT 9999 FEW010 SCT040 30/25 Q1002 NOSIG

TAF AMD VHHH 152316Z 1600/1706 03010KT 8000 FEW015 SCT020 TX32/1606Z TX31/1706Z TN26/1623Z
BECMG 1606/1608 05020KT
TEMPO 1608/1619 07025G35KT 3000 SHRA FEW010CB SCT020
BECMG 1617/1619 09030KT
TEMPO 1619/1622 11035G45KT 2000 +SHRA FEW008CB SCT018
TEMPO 1622/1702 13030G40KT 2500 +SHRA FEW008CB SCT018
 

skypig

Administrator
เกรงว่า ไฟลท์จะถุก cancell

ลมกรรโชก 50 น็อต...โอ้ แม้เจ้า

vfwfh9y'8N พิมพ์ผิด
พิมพ์ใหม่ อดได้ตังค์
 

skypig

Administrator
เช้า17 ส.ค. ปลายทาง ดูเหมือนจะดี

METAR VMMC 162330Z 09023G33KT 9999 FEW025 28/24 Q1001 NOSIG
 

skypig

Administrator
แต่กลางทาง มหาพายุ ต้องเปลี่ยนเส้นทางบินจาก A202 ลงใต้เป็น A1

ภาพสี

 

Attachments

Maverick231

Senior Member
ช่วงนี้ฝนตกลมแรงจริงๆ พัดป้ายโฆษณาพัง กันสาดแถวบ้านผมปลิวไปหลายหลังแล้วครับ
 

skypig

Administrator
กลับมาอย่างปลอดภัย

ไปลงมาเก็าแบบลมแรง120/24knots
มาลงสุวรรณภูมิ 2 แลนด์
มาเก้า ผ่านพ้นพายุมาแล้ว สรุป
VMMC 171200Z 11014KT 9999 FEW012 SCT025 28/26 Q1005 NOSIG
TAF VMMC 171100Z 1712/1818 14015KT 9999 FEW012 SCT025
TEMPO 1714/1803 14015G25KT 3000 SHRA FEW008 SCT012CB BKN040
 

skypig

Administrator
อัพรูป
บินสู้พายุ KAI TAK หนนี้ด้วย HS ABJ เครื่องบินลำโปรดของคุณโจ Air Asia



รูปพายุ KAI TAK ถ่ายขณะก่อนบินเข้าดานัง DAN route A1 ระดับความสูง 37000 ฟุต

 

Attachments

skypig

Administrator
VMMC (MACAO หลังจากพายุผ่านพ้นไปแล้ว

METAR text: VMMC 192330Z 26004KT 9999 FEW020 28/24 Q1006 NOSIG
Conditions at: MACAU observed 2330 UTC 19 August 2012
Temperature: 28.0°C (82°F)
Dewpoint: 24.0°C (75°F) [RH = 79%]
Pressure (altimeter): 29.70 inches Hg (1006.0 mb)
Winds: from the W (260 degrees) at 5 MPH (4 knots; 2.1 m/s)
Visibility: 6 or more miles (10+ km)
Ceiling: at least 12,000 feet AGL
Clouds: few clouds at 2000 feet AGL
Weather: no significant weather observed at this time
 


Flag Counter

กรุณาปิด โปรแกรมบล๊อกโฆษณา เพราะเราอยู่ได้ด้วยโฆษณาที่ท่านเห็น
Please close the adblock program. Because we can live with the ads you see
Top